Terminal Aerodrome Forecast
Issued by NWS

Home | Current Version | Previous Version | Text Only | Print | Product List | Glossary Off
Versions: 1 2 3 4 5 6 7 8 9 10 11 12 13 14 15 16

000
FTUS43 KUNR 190500
TAFGCC
TAF
KGCC 190520Z 1906/2006 28010KT P6SM SCT060
     FM190900 35009KT P6SM OVC010
     FM191800 28010KT P6SM SCT030=

USA.gov is the U.S. government's official web portal to all federal, state and local government web resources and services.